createdAt,value
2019-02-19T00:00:36.962Z,5.56
2019-02-19T00:03:03.469Z,5.55
2019-02-19T00:05:29.435Z,5.52
2019-02-19T00:07:55.524Z,5.48
2019-02-19T00:10:21.778Z,5.44
2019-02-19T00:12:47.792Z,5.39
2019-02-19T00:15:13.846Z,5.39
2019-02-19T00:17:39.918Z,5.44
2019-02-19T00:20:06.010Z,5.41
2019-02-19T00:22:32.046Z,5.50
2019-02-19T00:24:58.058Z,5.55
2019-02-19T00:27:24.061Z,5.52
2019-02-19T00:29:50.113Z,5.40
2019-02-19T00:32:15.987Z,5.33
2019-02-19T00:34:42.008Z,5.31
2019-02-19T00:37:08.331Z,5.28
2019-02-19T00:39:34.430Z,5.24
2019-02-19T00:42:00.530Z,5.35
2019-02-19T00:44:26.404Z,5.40
2019-02-19T00:46:52.399Z,5.31
2019-02-19T00:49:18.436Z,5.40
2019-02-19T00:51:44.323Z,5.36
2019-02-19T00:54:10.247Z,5.36
2019-02-19T00:56:36.232Z,5.33
2019-02-19T00:59:02.221Z,5.24
2019-02-19T01:01:28.238Z,5.22
2019-02-19T01:03:54.149Z,5.23
2019-02-19T01:06:20.246Z,5.18
2019-02-19T01:08:46.190Z,5.14
2019-02-19T01:11:12.149Z,5.20
2019-02-19T01:13:38.143Z,5.16
2019-02-19T01:16:04.288Z,5.01
2019-02-19T01:18:33.624Z,5.01
2019-02-19T01:20:59.644Z,4.98
2019-02-19T01:23:25.563Z,5.04
2019-02-19T01:25:51.523Z,4.99
2019-02-19T01:28:17.415Z,4.91
2019-02-19T01:30:43.426Z,4.91
2019-02-19T01:33:09.333Z,4.77
2019-02-19T01:35:35.210Z,4.73
2019-02-19T01:38:01.090Z,4.82
2019-02-19T01:40:26.958Z,4.90
2019-02-19T01:42:52.983Z,4.96
2019-02-19T01:45:19.085Z,4.91
2019-02-19T01:47:44.931Z,4.91
2019-02-19T01:50:11.049Z,4.92
2019-02-19T01:52:37.020Z,4.83
2019-02-19T01:55:05.345Z,4.92
2019-02-19T01:57:31.322Z,4.61
2019-02-19T01:59:57.236Z,4.61
2019-02-19T02:02:23.347Z,4.70
2019-02-19T02:04:49.249Z,4.64
2019-02-19T02:07:15.134Z,4.55
2019-02-19T02:09:41.068Z,4.59
2019-02-19T02:12:07.028Z,4.44
2019-02-19T02:14:32.907Z,4.51
2019-02-19T02:16:58.821Z,4.45
2019-02-19T02:19:24.981Z,4.37
2019-02-19T02:21:51.031Z,4.45
2019-02-19T02:24:16.926Z,4.48
2019-02-19T02:26:44.929Z,4.62
2019-02-19T02:29:10.957Z,4.68
2019-02-19T02:31:37.025Z,4.68
2019-02-19T02:34:02.911Z,4.61
2019-02-19T02:36:28.803Z,4.60
2019-02-19T02:38:54.783Z,4.60
2019-02-19T02:41:20.736Z,4.62
2019-02-19T02:43:46.804Z,4.54
2019-02-19T02:46:12.777Z,4.51
2019-02-19T02:48:38.670Z,4.54
2019-02-19T02:51:04.778Z,4.54
2019-02-19T02:53:30.658Z,4.63
2019-02-19T02:55:56.551Z,4.66
2019-02-19T02:58:22.525Z,4.68
2019-02-19T03:00:48.588Z,4.55
2019-02-19T03:03:14.459Z,4.44
2019-02-19T03:05:46.037Z,4.41
2019-02-19T03:08:12.094Z,4.42
2019-02-19T03:10:38.296Z,4.35
2019-02-19T03:13:04.287Z,4.40
2019-02-19T03:15:30.367Z,4.27
2019-02-19T03:17:56.241Z,4.22
2019-02-19T03:20:22.165Z,4.23
2019-02-19T03:22:48.045Z,4.29
2019-02-19T03:25:14.054Z,4.28
2019-02-19T03:27:40.005Z,4.32
2019-02-19T03:30:08.474Z,4.28
2019-02-19T03:32:34.367Z,4.36
2019-02-19T03:35:00.490Z,4.24
2019-02-19T03:37:26.506Z,4.24
2019-02-19T03:39:52.412Z,4.20
2019-02-19T03:42:18.402Z,4.22
2019-02-19T03:44:44.306Z,4.10
2019-02-19T03:47:10.217Z,4.16
2019-02-19T03:49:36.086Z,4.07
2019-02-19T03:52:01.959Z,4.13
2019-02-19T03:54:28.134Z,4.15
2019-02-19T03:56:54.143Z,4.05
2019-02-19T03:59:20.228Z,4.05
2019-02-19T04:01:46.359Z,4.03
2019-02-19T04:04:12.318Z,4.00
2019-02-19T04:06:38.194Z,3.94
2019-02-19T04:09:04.298Z,3.95
2019-02-19T04:11:30.315Z,3.95
2019-02-19T04:13:56.404Z,3.95
2019-02-19T04:16:22.285Z,3.98
2019-02-19T04:18:48.355Z,3.81
2019-02-19T04:21:18.254Z,3.98
2019-02-19T04:23:44.272Z,3.85
2019-02-19T04:26:10.287Z,3.74
2019-02-19T04:28:36.250Z,3.73
2019-02-19T04:31:02.261Z,3.92
2019-02-19T04:33:28.280Z,3.91
2019-02-19T04:35:54.255Z,3.82
2019-02-19T04:38:20.266Z,3.77
2019-02-19T04:40:46.386Z,3.77
2019-02-19T04:43:12.422Z,3.70
2019-02-19T04:45:38.430Z,3.76
2019-02-19T04:48:04.359Z,3.76
2019-02-19T04:50:30.316Z,3.61
2019-02-19T04:52:56.192Z,3.72
2019-02-19T04:55:22.250Z,3.79
2019-02-19T04:57:48.151Z,3.92
2019-02-19T05:00:14.226Z,3.92
2019-02-19T05:02:40.352Z,3.85
2019-02-19T05:05:06.444Z,3.94
2019-02-19T05:07:32.455Z,3.91
2019-02-19T05:09:58.490Z,3.88
2019-02-19T05:12:24.469Z,3.80
2019-02-19T05:14:50.379Z,3.81
2019-02-19T05:17:16.482Z,3.69
2019-02-19T05:19:42.403Z,3.55
2019-02-19T05:22:08.395Z,3.55
2019-02-19T05:24:34.392Z,3.58
2019-02-19T05:27:00.459Z,3.53
2019-02-19T05:29:26.523Z,3.56
2019-02-19T05:31:52.519Z,3.47
2019-02-19T05:34:18.371Z,3.47
2019-02-19T05:36:44.415Z,3.45
2019-02-19T05:39:10.417Z,3.50
2019-02-19T05:41:36.447Z,3.51
2019-02-19T05:44:02.537Z,3.55
2019-02-19T05:46:28.455Z,3.61
2019-02-19T05:48:54.414Z,3.61
2019-02-19T05:51:20.332Z,3.59
2019-02-19T05:53:46.233Z,3.47
2019-02-19T05:56:12.310Z,3.59
2019-02-19T05:58:38.204Z,3.36
2019-02-19T06:01:04.243Z,3.36
2019-02-19T06:03:30.141Z,3.43
2019-02-19T06:05:55.987Z,3.45
2019-02-19T06:08:21.942Z,3.42
2019-02-19T06:10:47.934Z,3.46
2019-02-19T06:13:13.943Z,3.42
2019-02-19T06:15:39.867Z,3.52
2019-02-19T06:18:05.746Z,3.49
2019-02-19T06:20:31.711Z,3.40
2019-02-19T06:22:57.704Z,3.43
2019-02-19T06:25:23.578Z,3.54
2019-02-19T06:27:49.710Z,3.47
2019-02-19T06:30:15.584Z,3.41
2019-02-19T06:32:41.443Z,3.42
2019-02-19T06:35:08.174Z,3.46
2019-02-19T06:37:34.168Z,3.50
2019-02-19T06:40:00.160Z,3.44
2019-02-19T06:42:26.317Z,3.44
2019-02-19T06:44:52.212Z,3.62
2019-02-19T06:47:18.264Z,3.62
2019-02-19T06:49:44.161Z,3.67
2019-02-19T06:52:10.195Z,3.67
2019-02-19T06:54:36.112Z,3.67
2019-02-19T06:57:01.976Z,3.78
2019-02-19T06:59:27.954Z,3.85
2019-02-19T07:01:58.821Z,3.79
2019-02-19T07:04:29.331Z,3.93
2019-02-19T07:06:55.427Z,4.04
2019-02-19T07:09:21.547Z,4.07
2019-02-19T07:11:47.534Z,4.07
2019-02-19T07:14:13.399Z,4.23
2019-02-19T07:16:39.309Z,4.35
2019-02-19T07:19:05.264Z,4.62
2019-02-19T07:21:31.176Z,4.93
2019-02-19T07:24:04.252Z,4.79
2019-02-19T07:26:25.129Z,4.79
2019-02-19T07:28:51.041Z,4.89
2019-02-19T07:31:18.863Z,4.83
2019-02-19T07:33:44.723Z,4.84
2019-02-19T07:36:10.739Z,4.82
2019-02-19T07:38:36.589Z,4.86
2019-02-19T07:41:02.718Z,5.04
2019-02-19T07:43:28.612Z,5.16
2019-02-19T07:45:54.500Z,5.34
2019-02-19T07:48:20.439Z,5.26
2019-02-19T07:50:46.315Z,5.35
2019-02-19T07:53:12.180Z,5.58
2019-02-19T07:55:38.260Z,5.54
2019-02-19T07:58:04.079Z,5.61
2019-02-19T08:00:29.957Z,5.64
2019-02-19T08:02:55.878Z,5.79
2019-02-19T08:05:21.881Z,5.96
2019-02-19T08:07:47.752Z,5.96
2019-02-19T08:10:13.746Z,6.09
2019-02-19T08:12:39.614Z,6.11
2019-02-19T08:15:08.538Z,6.30
2019-02-19T08:17:34.413Z,6.33
2019-02-19T08:20:00.499Z,6.41
2019-02-19T08:22:26.369Z,6.43
2019-02-19T08:24:52.297Z,6.70
2019-02-19T08:27:18.208Z,6.78
2019-02-19T08:29:44.097Z,6.89
2019-02-19T08:32:10.062Z,6.91
2019-02-19T08:34:35.973Z,7.05
2019-02-19T08:37:01.842Z,7.06
2019-02-19T08:39:27.801Z,7.16
2019-02-19T08:41:53.689Z,7.24
2019-02-19T08:44:19.564Z,7.34
2019-02-19T08:46:45.589Z,7.43
2019-02-19T08:49:11.465Z,7.52
2019-02-19T08:51:37.329Z,7.61
2019-02-19T08:54:03.435Z,7.74
2019-02-19T08:56:29.415Z,7.86
2019-02-19T08:58:55.276Z,8.12
2019-02-19T09:01:21.208Z,8.31
2019-02-19T09:03:47.299Z,8.63
2019-02-19T09:06:13.164Z,8.70
2019-02-19T09:08:39.149Z,9.07
2019-02-19T09:11:05.170Z,9.23
2019-02-19T09:13:31.168Z,9.42
2019-02-19T09:15:57.124Z,9.48
2019-02-19T09:18:22.996Z,9.59
2019-02-19T09:20:49.067Z,9.63
2019-02-19T09:23:15.063Z,9.70
2019-02-19T09:25:41.066Z,9.81
2019-02-19T09:28:06.953Z,9.87
2019-02-19T09:30:32.869Z,9.96
2019-02-19T09:32:59.019Z,9.87
2019-02-19T09:35:24.984Z,10.03
2019-02-19T09:37:50.829Z,10.15
2019-02-19T09:40:16.718Z,10.18
2019-02-19T09:42:42.612Z,10.27
2019-02-19T09:45:09.123Z,10.27
2019-02-19T09:47:35.094Z,10.26
2019-02-19T09:50:01.056Z,10.35
2019-02-19T09:52:26.994Z,10.27
2019-02-19T09:54:52.816Z,10.52
2019-02-19T09:57:18.728Z,10.55
2019-02-19T09:59:44.615Z,10.58
2019-02-19T10:02:10.494Z,10.46
2019-02-19T10:04:36.450Z,10.62
2019-02-19T10:07:02.430Z,10.71
2019-02-19T10:09:28.392Z,10.64
2019-02-19T10:11:54.404Z,10.93
2019-02-19T10:14:20.301Z,11.01
2019-02-19T10:16:46.188Z,11.02
2019-02-19T10:19:12.089Z,10.94
2019-02-19T10:21:37.963Z,10.96
2019-02-19T10:24:03.936Z,11.13
2019-02-19T10:26:33.424Z,11.11
2019-02-19T10:28:59.309Z,11.34
2019-02-19T10:31:25.291Z,10.98
2019-02-19T10:33:51.168Z,11.11
2019-02-19T10:36:17.243Z,11.20
2019-02-19T10:38:43.105Z,11.39
2019-02-19T10:41:08.998Z,11.40
2019-02-19T10:43:34.880Z,11.41
2019-02-19T10:46:00.929Z,11.39
2019-02-19T10:48:26.824Z,11.43
2019-02-19T10:50:52.705Z,11.38
2019-02-19T10:53:18.788Z,11.56
2019-02-19T10:55:44.794Z,11.62
2019-02-19T10:58:11.590Z,11.50
2019-02-19T11:00:37.731Z,11.68
2019-02-19T11:03:03.819Z,11.70
2019-02-19T11:05:29.686Z,11.80
2019-02-19T11:07:55.654Z,11.46
2019-02-19T11:10:21.652Z,11.70
2019-02-19T11:12:47.613Z,11.73
2019-02-19T11:15:14.254Z,11.82
2019-02-19T11:17:40.222Z,12.11
2019-02-19T11:20:15.215Z,11.99
2019-02-19T11:22:41.124Z,12.08
2019-02-19T11:25:09.945Z,12.04
2019-02-19T11:27:36.025Z,12.05
2019-02-19T11:30:03.570Z,12.22
2019-02-19T11:32:29.429Z,12.09
2019-02-19T11:34:55.295Z,11.97
2019-02-19T11:37:21.192Z,11.97
2019-02-19T11:39:47.054Z,12.31
2019-02-19T11:42:12.985Z,12.06
2019-02-19T11:44:38.878Z,12.14
2019-02-19T11:47:04.947Z,12.00
2019-02-19T11:49:30.836Z,12.07
2019-02-19T11:51:56.727Z,12.48
2019-02-19T11:54:22.717Z,12.49
2019-02-19T11:56:48.675Z,12.25
2019-02-19T11:59:14.581Z,12.42
2019-02-19T12:01:40.695Z,12.27
2019-02-19T12:04:06.675Z,12.49
2019-02-19T12:06:32.525Z,12.70
2019-02-19T12:08:58.511Z,13.08
2019-02-19T12:11:24.485Z,12.91
2019-02-19T12:13:50.531Z,12.80
2019-02-19T12:16:16.482Z,12.95
2019-02-19T12:18:46.139Z,15.23
2019-02-19T12:21:10.756Z,18.98
2019-02-19T12:23:36.659Z,21.45
2019-02-19T12:26:02.734Z,21.08
2019-02-19T12:28:28.886Z,20.88
2019-02-19T12:30:54.845Z,19.14
2019-02-19T12:33:20.788Z,19.38
2019-02-19T12:35:46.714Z,16.56
2019-02-19T12:38:12.702Z,15.47
2019-02-19T12:40:38.666Z,14.55
2019-02-19T12:43:04.636Z,15.55
2019-02-19T12:45:30.630Z,16.46
2019-02-19T12:47:56.675Z,17.21
2019-02-19T12:50:22.650Z,17.91
2019-02-19T12:52:48.545Z,18.33
2019-02-19T12:55:14.640Z,16.55
2019-02-19T12:57:40.510Z,21.31
2019-02-19T13:00:09.679Z,21.91
2019-02-19T13:02:35.663Z,21.07
2019-02-19T13:05:01.656Z,20.67
2019-02-19T13:07:27.549Z,22.17
2019-02-19T13:09:53.540Z,24.51
2019-02-19T13:12:19.535Z,27.79
2019-02-19T13:14:45.458Z,22.79
2019-02-19T13:17:11.522Z,24.64
2019-02-19T13:19:37.409Z,24.64
2019-02-19T13:22:03.432Z,24.72
2019-02-19T13:24:29.301Z,22.28
2019-02-19T13:26:55.164Z,22.06
2019-02-19T13:29:21.127Z,22.93
2019-02-19T13:31:47.007Z,23.95
2019-02-19T13:34:12.968Z,23.56
2019-02-19T13:36:38.876Z,23.53
2019-02-19T13:39:05.630Z,23.43
2019-02-19T13:41:31.600Z,24.63
2019-02-19T13:43:57.501Z,25.42
2019-02-19T13:46:23.494Z,23.62
2019-02-19T13:48:49.394Z,24.98
2019-02-19T13:51:15.432Z,26.21
2019-02-19T13:53:43.200Z,25.46
2019-02-19T13:56:09.113Z,22.64
2019-02-19T13:58:35.190Z,25.88
2019-02-19T14:01:01.050Z,29.25
2019-02-19T14:03:27.084Z,29.65
2019-02-19T14:05:53.076Z,23.20
2019-02-19T14:08:19.139Z,22.48
2019-02-19T14:10:45.127Z,23.09
2019-02-19T14:13:11.222Z,24.01
2019-02-19T14:15:38.994Z,23.45
2019-02-19T14:18:06.742Z,23.17
2019-02-19T14:20:52.949Z,23.99
2019-02-19T14:23:33.023Z,22.42
2019-02-19T14:26:17.626Z,23.98
2019-02-19T14:28:57.456Z,24.08
2019-02-19T14:31:28.247Z,22.56
2019-02-19T14:33:59.038Z,23.05
2019-02-19T14:36:29.720Z,26.45
2019-02-19T14:39:00.272Z,24.86
2019-02-19T14:41:33.769Z,21.74
2019-02-19T14:44:01.741Z,22.21
2019-02-19T14:46:35.352Z,21.00
2019-02-19T14:49:08.646Z,22.20
2019-02-19T14:51:42.543Z,23.01
2019-02-19T14:54:27.233Z,24.50
2019-02-19T14:57:00.895Z,24.37
2019-02-19T14:59:34.759Z,24.71
2019-02-19T15:02:05.065Z,24.13
2019-02-19T15:04:51.204Z,25.31
2019-02-19T15:07:30.931Z,21.12
2019-02-19T15:10:01.711Z,20.36
2019-02-19T15:12:41.770Z,23.13
2019-02-19T15:15:13.306Z,20.72
2019-02-19T15:17:41.172Z,22.37
2019-02-19T15:20:11.766Z,22.23
2019-02-19T15:22:42.522Z,22.73
2019-02-19T15:25:22.288Z,22.77
2019-02-19T15:28:06.563Z,23.73
2019-02-19T15:30:49.707Z,22.64
2019-02-19T15:33:32.853Z,18.40
2019-02-19T15:36:16.026Z,18.54
2019-02-19T15:38:58.905Z,16.03
2019-02-19T15:41:29.814Z,15.00
2019-02-19T15:44:09.835Z,14.88
2019-02-19T15:46:37.683Z,14.52
2019-02-19T15:49:05.663Z,14.32
2019-02-19T15:51:50.343Z,14.34
2019-02-19T15:54:18.136Z,14.13
2019-02-19T15:56:54.815Z,14.09
2019-02-19T15:59:31.889Z,14.22
2019-02-19T16:01:59.781Z,13.84
2019-02-19T16:04:39.612Z,13.74
2019-02-19T16:07:22.713Z,13.72
2019-02-19T16:09:56.464Z,13.48
2019-02-19T16:12:30.255Z,13.43
2019-02-19T16:14:58.003Z,13.45
2019-02-19T16:17:25.899Z,13.19
2019-02-19T16:19:57.287Z,13.23
2019-02-19T16:22:31.547Z,13.16
2019-02-19T16:24:59.456Z,12.98
2019-02-19T16:27:36.302Z,12.89
2019-02-19T16:30:06.944Z,12.78
2019-02-19T16:32:51.801Z,12.71
2019-02-19T16:35:31.665Z,12.61
2019-02-19T16:37:59.545Z,12.48
2019-02-19T16:40:33.328Z,12.45
2019-02-19T16:43:01.129Z,12.33
2019-02-19T16:45:45.832Z,12.22
2019-02-19T16:48:13.605Z,12.16
2019-02-19T16:50:47.451Z,12.09
2019-02-19T16:53:24.322Z,11.92
2019-02-19T16:56:04.192Z,11.73
2019-02-19T16:58:32.004Z,11.61
2019-02-19T17:00:59.790Z,11.46
2019-02-19T17:03:30.394Z,11.61
2019-02-19T17:05:58.327Z,11.60
2019-02-19T17:08:26.116Z,11.36
2019-02-19T17:10:59.781Z,11.41
2019-02-19T17:13:44.387Z,11.42
2019-02-19T17:16:17.920Z,11.15
2019-02-19T17:18:48.499Z,11.39
2019-02-19T17:21:34.591Z,11.07
2019-02-19T17:24:19.036Z,10.69
2019-02-19T17:26:49.566Z,10.37
2019-02-19T17:29:26.364Z,10.27
2019-02-19T17:31:54.130Z,10.26
2019-02-19T17:34:23.978Z,10.20
2019-02-19T17:36:54.858Z,10.20
2019-02-19T17:39:22.766Z,10.15
2019-02-19T17:41:50.512Z,10.07
2019-02-19T17:44:18.297Z,10.13
2019-02-19T17:46:55.049Z,10.08
2019-02-19T17:49:22.860Z,10.02
2019-02-19T17:51:53.310Z,9.93
2019-02-19T17:54:27.377Z,9.85
2019-02-19T17:56:57.973Z,9.79
2019-02-19T17:59:25.748Z,9.66
2019-02-19T18:02:10.365Z,9.59
2019-02-19T18:04:38.178Z,9.38
2019-02-19T18:07:16.109Z,9.33
2019-02-19T18:09:43.908Z,9.62
2019-02-19T18:12:28.548Z,9.51
2019-02-19T18:14:56.318Z,9.33
2019-02-19T18:17:30.127Z,9.13
2019-02-19T18:19:56.122Z,9.04
2019-02-19T18:22:21.976Z,8.99
2019-02-19T18:24:47.824Z,8.90
2019-02-19T18:27:13.703Z,8.88
2019-02-19T18:29:39.557Z,8.88
2019-02-19T18:32:05.548Z,8.77
2019-02-19T18:34:31.391Z,8.85
2019-02-19T18:37:00.703Z,8.64
2019-02-19T18:39:26.593Z,8.61
2019-02-19T18:41:52.560Z,8.58
2019-02-19T18:44:18.400Z,8.51
2019-02-19T18:46:44.345Z,8.43
2019-02-19T18:49:10.205Z,8.51
2019-02-19T18:51:36.141Z,8.46
2019-02-19T18:54:02.252Z,8.50
2019-02-19T18:56:28.110Z,8.48
2019-02-19T18:58:53.944Z,8.46
2019-02-19T19:01:19.799Z,8.44
2019-02-19T19:03:45.657Z,8.40
2019-02-19T19:06:11.557Z,8.42
2019-02-19T19:08:37.401Z,8.32
2019-02-19T19:11:03.357Z,8.32
2019-02-19T19:13:29.240Z,8.34
2019-02-19T19:15:55.090Z,8.23
2019-02-19T19:18:20.941Z,8.22
2019-02-19T19:20:46.918Z,8.16
2019-02-19T19:23:12.758Z,8.02
2019-02-19T19:25:38.629Z,8.05
2019-02-19T19:28:04.596Z,8.02
2019-02-19T19:30:30.449Z,8.04
2019-02-19T19:32:56.304Z,7.92
2019-02-19T19:35:22.170Z,7.87
2019-02-19T19:37:48.155Z,7.92
2019-02-19T19:40:14.029Z,7.83
2019-02-19T19:42:39.973Z,7.93
2019-02-19T19:45:08.486Z,7.98
2019-02-19T19:47:34.348Z,8.07
2019-02-19T19:50:00.215Z,7.97
2019-02-19T19:52:26.038Z,7.98
2019-02-19T19:54:51.931Z,8.06
2019-02-19T19:57:17.781Z,8.03
2019-02-19T19:59:43.619Z,8.08
2019-02-19T20:02:09.603Z,7.95
2019-02-19T20:04:35.560Z,7.88
2019-02-19T20:07:01.506Z,7.85
2019-02-19T20:09:27.368Z,7.83
2019-02-19T20:11:53.199Z,7.77
2019-02-19T20:14:20.552Z,7.77
2019-02-19T20:16:46.400Z,7.84
2019-02-19T20:19:12.266Z,7.70
2019-02-19T20:21:38.352Z,7.71
2019-02-19T20:24:04.662Z,7.81
2019-02-19T20:26:31.035Z,8.10
2019-02-19T20:28:57.463Z,7.94
2019-02-19T20:31:23.917Z,7.71
2019-02-19T20:33:50.547Z,7.51
2019-02-19T20:36:17.434Z,7.51
2019-02-19T20:38:44.471Z,7.48
2019-02-19T20:41:11.793Z,7.35
2019-02-19T20:43:39.039Z,7.45
2019-02-19T20:46:06.409Z,7.25
2019-02-19T20:48:33.771Z,7.51
2019-02-19T20:51:01.184Z,7.37
2019-02-19T20:53:29.008Z,7.32
2019-02-19T20:55:55.781Z,7.52
2019-02-19T20:58:22.716Z,7.43
2019-02-19T21:00:49.593Z,7.27
2019-02-19T21:03:16.035Z,7.16
2019-02-19T21:05:42.202Z,7.17
2019-02-19T21:08:08.414Z,7.04
2019-02-19T21:10:34.454Z,7.07
2019-02-19T21:13:00.386Z,7.09
2019-02-19T21:15:26.328Z,6.90
2019-02-19T21:17:52.276Z,6.89
2019-02-19T21:20:18.116Z,6.86
2019-02-19T21:22:44.101Z,6.87
2019-02-19T21:25:10.398Z,6.68
2019-02-19T21:27:36.251Z,6.66
2019-02-19T21:30:05.014Z,6.72
2019-02-19T21:32:30.894Z,6.69
2019-02-19T21:34:56.765Z,6.69
2019-02-19T21:37:25.867Z,6.63
2019-02-19T21:39:51.738Z,6.81
2019-02-19T21:42:18.476Z,6.80
2019-02-19T21:44:44.339Z,6.78
2019-02-19T21:47:10.268Z,6.61
2019-02-19T21:49:36.156Z,6.57
2019-02-19T21:52:02.037Z,6.77
2019-02-19T21:54:27.942Z,6.77
2019-02-19T21:56:53.847Z,6.74
2019-02-19T21:59:19.701Z,6.61
2019-02-19T22:01:45.593Z,6.50
2019-02-19T22:04:11.456Z,6.47
2019-02-19T22:06:37.290Z,6.43
2019-02-19T22:09:04.164Z,6.53
2019-02-19T22:11:30.046Z,6.72
2019-02-19T22:13:55.947Z,6.74
2019-02-19T22:16:21.835Z,6.71
2019-02-19T22:18:47.688Z,6.55
2019-02-19T22:21:18.686Z,6.45
2019-02-19T22:23:44.641Z,6.30
2019-02-19T22:26:10.669Z,6.34
2019-02-19T22:28:36.498Z,6.45
2019-02-19T22:31:02.335Z,6.32
2019-02-19T22:33:28.344Z,6.23
2019-02-19T22:35:54.196Z,6.25
2019-02-19T22:38:20.122Z,6.21
2019-02-19T22:40:54.823Z,6.15
2019-02-19T22:43:13.937Z,6.14
2019-02-19T22:45:39.904Z,6.14
2019-02-19T22:48:05.897Z,6.11
2019-02-19T22:50:31.752Z,5.93
2019-02-19T22:52:57.610Z,5.93
2019-02-19T22:55:28.097Z,5.89
2019-02-19T22:57:53.965Z,5.81
2019-02-19T23:00:46.663Z,5.77
2019-02-19T23:03:12.836Z,5.73
2019-02-19T23:05:38.796Z,5.70
2019-02-19T23:08:04.657Z,5.71
2019-02-19T23:10:30.776Z,5.72
2019-02-19T23:12:56.653Z,5.68
2019-02-19T23:15:22.563Z,5.60
2019-02-19T23:17:48.444Z,5.54
2019-02-19T23:20:14.402Z,5.47
2019-02-19T23:22:40.255Z,5.32
2019-02-19T23:25:06.390Z,5.25
2019-02-19T23:27:32.330Z,5.29
2019-02-19T23:29:58.190Z,5.31
2019-02-19T23:32:24.096Z,5.51
2019-02-19T23:34:52.076Z,5.36
2019-02-19T23:37:17.976Z,5.30
2019-02-19T23:39:47.828Z,5.39
2019-02-19T23:42:13.671Z,5.48
2019-02-19T23:44:39.560Z,5.44
2019-02-19T23:47:05.429Z,5.46
2019-02-19T23:49:31.373Z,5.47
2019-02-19T23:51:57.280Z,5.43
2019-02-19T23:54:23.147Z,5.28
2019-02-19T23:56:48.993Z,5.24
2019-02-19T23:59:14.884Z,5.19
